Time;durP1;ratioP1;P1;durP2;ratioP2;P2;SDS_P1;SDS_P2;PMS_P1;PMS_P2;Temp;Humidity;BMP_temperature;BMP_pressure;BME280_temperature;BME280_humidity;BME280_pressure;Samples;Min_cycle;Max_cycle;Signal;HPM_P1;HPM_P2
2021/08/23 00:02:14;;;;;;;14.13;5.33;;;;;;;;;;5035043;28;20017;-84
2021/08/23 00:04:39;;;;;;;10.32;6.50;;;;;;;;;;5034832;28;20461;-84
2021/08/23 00:07:05;;;;;;;13.05;5.93;;;;;;;;;;5034624;28;20100;-85
2021/08/23 00:09:31;;;;;;;11.48;5.05;;;;;;;;;;5037936;28;20079;-85
2021/08/23 00:11:56;;;;;;;11.02;5.53;;;;;;;;;;5036576;28;20034;-85
2021/08/23 00:14:22;;;;;;;7.85;5.07;;;;;;;;;;5035944;28;20036;-84
2021/08/23 00:16:47;;;;;;;9.88;6.28;;;;;;;;;;5032581;28;20513;-84
2021/08/23 00:19:12;;;;;;;8.37;5.33;;;;;;;;;;5032375;28;20055;-83
2021/08/23 00:21:44;;;;;;;9.32;5.30;;;;;;;;;;5034055;28;20335;-84
2021/08/23 00:24:23;;;;;;;8.55;5.28;;;;;;;;;;5031712;28;20018;-84
2021/08/23 00:26:52;;;;;;;8.65;5.50;;;;;;;;;;5032744;28;20026;-84
2021/08/23 00:29:18;;;;;;;8.90;4.70;;;;;;;;;;5032321;28;20021;-84
2021/08/23 00:31:43;;;;;;;9.55;4.63;;;;;;;;;;5032238;28;20390;-84
2021/08/23 00:34:09;;;;;;;5.30;4.13;;;;;;;;;;5032115;28;20021;-84
2021/08/23 00:36:34;;;;;;;8.48;3.95;;;;;;;;;;5031644;28;20020;-84
2021/08/23 00:38:59;;;;;;;6.60;3.70;;;;;;;;;;5032062;28;20029;-84
2021/08/23 00:41:24;;;;;;;5.53;4.67;;;;;;;;;;5034849;28;20025;-84
2021/08/23 00:43:49;;;;;;;6.47;3.58;;;;;;;;;;5035333;28;20096;-84
2021/08/23 00:46:15;;;;;;;6.80;4.27;;;;;;;;;;5038022;28;20607;-85
2021/08/23 00:48:40;;;;;;;8.05;4.05;;;;;;;;;;5037244;28;20272;-84
2021/08/23 00:51:05;;;;;;;4.80;3.80;;;;;;;;;;5035422;28;20038;-85
2021/08/23 00:53:30;;;;;;;10.30;4.45;;;;;;;;;;5034660;28;20064;-85
2021/08/23 00:55:56;;;;;;;4.90;3.67;;;;;;;;;;5033085;28;20471;-84
2021/08/23 00:58:21;;;;;;;6.27;3.60;;;;;;;;;;5033226;28;20256;-85
2021/08/23 01:00:48;;;;;;;8.27;4.22;;;;;;;;;;5032365;28;20272;-83
2021/08/23 01:03:19;;;;;;;11.15;4.15;;;;;;;;;;5032184;28;20112;-84
2021/08/23 01:05:44;;;;;;;4.37;3.80;;;;;;;;;;5030974;28;20017;-84
2021/08/23 01:08:12;;;;;;;10.02;4.72;;;;;;;;;;5031655;28;20017;-84
2021/08/23 01:10:42;;;;;;;8.73;4.78;;;;;;;;;;5031424;28;20032;-83
2021/08/23 01:13:07;;;;;;;5.90;3.78;;;;;;;;;;5030766;28;20427;-83
2021/08/23 01:15:32;;;;;;;9.63;4.03;;;;;;;;;;5029250;28;20061;-84
2021/08/23 01:17:58;;;;;;;9.25;4.07;;;;;;;;;;5031309;28;20305;-85
2021/08/23 01:20:23;;;;;;;5.57;4.55;;;;;;;;;;5034736;28;20018;-85
2021/08/23 01:22:49;;;;;;;6.55;4.47;;;;;;;;;;5036675;28;20021;-85
2021/08/23 01:25:16;;;;;;;8.77;3.80;;;;;;;;;;5037024;28;20021;-84
2021/08/23 01:27:45;;;;;;;9.07;4.70;;;;;;;;;;5035533;28;20014;-85
2021/08/23 01:30:12;;;;;;;9.52;3.95;;;;;;;;;;5032211;28;20451;-85
2021/08/23 01:32:37;;;;;;;5.95;3.88;;;;;;;;;;5032363;28;20112;-84
2021/08/23 01:35:04;;;;;;;5.90;4.47;;;;;;;;;;5032343;28;20112;-84
2021/08/23 01:37:31;;;;;;;4.57;3.70;;;;;;;;;;5032008;28;20033;-84
2021/08/23 01:39:56;;;;;;;5.53;3.67;;;;;;;;;;5030840;28;20037;-83
2021/08/23 01:42:21;;;;;;;6.82;3.65;;;;;;;;;;5031349;28;20018;-83
2021/08/23 01:44:47;;;;;;;8.37;3.97;;;;;;;;;;5030892;28;20074;-83
2021/08/23 01:47:12;;;;;;;7.10;3.80;;;;;;;;;;5030520;28;20493;-83
2021/08/23 01:49:38;;;;;;;6.63;4.10;;;;;;;;;;5030425;28;20264;-83
2021/08/23 01:52:04;;;;;;;8.15;3.83;;;;;;;;;;5029048;28;20271;-85
2021/08/23 01:54:29;;;;;;;6.68;4.30;;;;;;;;;;5035747;28;20500;-83
2021/08/23 01:56:54;;;;;;;6.03;3.60;;;;;;;;;;5033276;28;20033;-83
2021/08/23 01:59:19;;;;;;;6.55;3.47;;;;;;;;;;5034330;28;20260;-83
2021/08/23 02:01:45;;;;;;;5.10;3.80;;;;;;;;;;5034126;28;20025;-83
2021/08/23 02:04:10;;;;;;;9.33;3.73;;;;;;;;;;5032420;28;20800;-83
2021/08/23 02:06:35;;;;;;;6.40;3.67;;;;;;;;;;5033884;28;20256;-82
2021/08/23 02:09:01;;;;;;;4.07;3.67;;;;;;;;;;5032277;28;20022;-83
2021/08/23 02:11:26;;;;;;;6.47;3.50;;;;;;;;;;5029828;28;20268;-82
2021/08/23 02:13:52;;;;;;;5.78;3.60;;;;;;;;;;5029646;28;20028;-82
2021/08/23 02:16:17;;;;;;;4.97;3.53;;;;;;;;;;5032473;28;20060;-83
2021/08/23 02:18:42;;;;;;;6.25;4.13;;;;;;;;;;5035634;28;20021;-83
2021/08/23 02:21:07;;;;;;;4.87;3.17;;;;;;;;;;5033928;28;20029;-83
2021/08/23 02:23:33;;;;;;;8.30;3.25;;;;;;;;;;5033431;28;20271;-83
2021/08/23 02:25:58;;;;;;;5.23;3.73;;;;;;;;;;5035789;28;20026;-83
2021/08/23 02:28:23;;;;;;;5.27;3.10;;;;;;;;;;5034054;28;20259;-83
2021/08/23 02:30:48;;;;;;;3.63;3.17;;;;;;;;;;5032607;28;20794;-82
2021/08/23 02:33:14;;;;;;;6.00;2.88;;;;;;;;;;5030363;28;20124;-82
2021/08/23 02:35:39;;;;;;;5.53;4.07;;;;;;;;;;5029941;28;20032;-83
2021/08/23 02:38:06;;;;;;;7.17;3.70;;;;;;;;;;5031407;28;20030;-83
2021/08/23 02:40:32;;;;;;;5.00;2.78;;;;;;;;;;5035981;28;20288;-83
2021/08/23 02:42:57;;;;;;;4.38;2.92;;;;;;;;;;5034792;28;20080;-83
2021/08/23 02:45:22;;;;;;;4.93;2.93;;;;;;;;;;5032800;28;20063;-83
2021/08/23 02:47:47;;;;;;;9.63;2.67;;;;;;;;;;5031683;28;20252;-82
2021/08/23 02:50:12;;;;;;;4.67;2.70;;;;;;;;;;5035195;28;20666;-83
2021/08/23 02:52:38;;;;;;;6.10;3.30;;;;;;;;;;5032872;28;20271;-82
2021/08/23 02:55:04;;;;;;;4.03;2.75;;;;;;;;;;5032564;28;20362;-83
2021/08/23 02:57:29;;;;;;;5.07;2.97;;;;;;;;;;5031739;28;20017;-83
2021/08/23 02:59:55;;;;;;;6.30;3.30;;;;;;;;;;5032240;28;20024;-83
2021/08/23 03:02:20;;;;;;;6.70;2.92;;;;;;;;;;5035357;28;20682;-83
2021/08/23 03:04:45;;;;;;;6.53;3.10;;;;;;;;;;5032984;28;20543;-83
2021/08/23 03:07:10;;;;;;;8.83;2.83;;;;;;;;;;5033158;28;20253;-83
2021/08/23 03:09:35;;;;;;;6.80;2.93;;;;;;;;;;5030851;28;20276;-83
2021/08/23 03:12:01;;;;;;;5.70;2.83;;;;;;;;;;5031933;28;20263;-83
2021/08/23 03:14:26;;;;;;;9.87;2.97;;;;;;;;;;5031490;28;20620;-82
2021/08/23 03:16:51;;;;;;;3.70;3.28;;;;;;;;;;5035026;28;20292;-83
2021/08/23 03:19:16;;;;;;;4.40;3.17;;;;;;;;;;5037567;28;20036;-83
2021/08/23 03:21:41;;;;;;;4.53;3.00;;;;;;;;;;5034301;28;20032;-82
2021/08/23 03:24:07;;;;;;;4.30;3.90;;;;;;;;;;5038107;28;20056;-83
2021/08/23 03:26:32;;;;;;;6.55;3.95;;;;;;;;;;5037298;28;20363;-83
2021/08/23 03:28:57;;;;;;;5.97;4.00;;;;;;;;;;5037296;28;20025;-83
2021/08/23 03:31:22;;;;;;;10.95;5.20;;;;;;;;;;5034437;28;20276;-83
2021/08/23 03:33:47;;;;;;;7.73;5.23;;;;;;;;;;5035370;28;20036;-82
2021/08/23 03:36:13;;;;;;;8.88;5.40;;;;;;;;;;5032969;28;20252;-83
2021/08/23 03:38:38;;;;;;;9.98;5.47;;;;;;;;;;5033560;28;20048;-82
2021/08/23 03:41:03;;;;;;;12.45;6.43;;;;;;;;;;5033689;28;20034;-83
2021/08/23 03:43:29;;;;;;;7.80;5.93;;;;;;;;;;5035421;28;20026;-83
2021/08/23 03:45:54;;;;;;;8.33;5.83;;;;;;;;;;5036108;28;20026;-83
2021/08/23 03:48:19;;;;;;;11.43;6.53;;;;;;;;;;5038711;28;20288;-83
2021/08/23 03:50:44;;;;;;;12.27;5.93;;;;;;;;;;5036376;28;20022;-82
2021/08/23 03:53:10;;;;;;;13.47;7.57;;;;;;;;;;5033006;28;20125;-83
2021/08/23 03:55:35;;;;;;;7.53;6.60;;;;;;;;;;5033870;28;20314;-82
2021/08/23 03:58:00;;;;;;;9.87;7.07;;;;;;;;;;5033517;28;20037;-83
2021/08/23 04:00:25;;;;;;;11.77;7.60;;;;;;;;;;5031528;28;20272;-83
2021/08/23 04:02:51;;;;;;;9.38;4.65;;;;;;;;;;5034603;28;20022;-83
2021/08/23 04:05:16;;;;;;;6.85;5.13;;;;;;;;;;5036645;28;20032;-83
2021/08/23 04:07:41;;;;;;;8.32;5.15;;;;;;;;;;5038335;28;20025;-83
2021/08/23 04:10:07;;;;;;;11.95;5.43;;;;;;;;;;5037132;28;20036;-83
2021/08/23 04:12:32;;;;;;;9.52;4.95;;;;;;;;;;5035864;28;20036;-82
2021/08/23 04:14:59;;;;;;;6.43;4.68;;;;;;;;;;5033346;28;20059;-82
2021/08/23 04:17:24;;;;;;;12.50;6.20;;;;;;;;;;5033609;28;20124;-83
2021/08/23 04:19:49;;;;;;;10.43;6.10;;;;;;;;;;5033020;28;20100;-83
2021/08/23 04:22:14;;;;;;;10.17;6.23;;;;;;;;;;5032324;28;20147;-82
2021/08/23 04:24:39;;;;;;;6.93;5.83;;;;;;;;;;5032449;28;20027;-82
2021/08/23 04:27:04;;;;;;;8.18;5.25;;;;;;;;;;5032158;28;20014;-82
2021/08/23 04:29:30;;;;;;;7.78;5.15;;;;;;;;;;5034961;28;20543;-83
2021/08/23 04:31:55;;;;;;;14.20;5.47;;;;;;;;;;5037003;28;20501;-83
2021/08/23 04:34:20;;;;;;;11.15;4.13;;;;;;;;;;5034590;28;20252;-83
2021/08/23 04:36:45;;;;;;;14.20;5.07;;;;;;;;;;5033378;28;20021;-82
2021/08/23 04:39:10;;;;;;;14.03;8.67;;;;;;;;;;5032965;28;20252;-82
2021/08/23 04:41:36;;;;;;;12.05;6.50;;;;;;;;;;5032215;28;20029;-83
2021/08/23 04:44:02;;;;;;;18.08;9.68;;;;;;;;;;5031915;28;20342;-82
2021/08/23 04:46:27;;;;;;;13.52;9.15;;;;;;;;;;5030375;28;20116;-83
2021/08/23 04:48:52;;;;;;;10.37;8.50;;;;;;;;;;5030373;28;20021;-83
2021/08/23 04:51:17;;;;;;;9.20;7.97;;;;;;;;;;5037664;28;20256;-84
2021/08/23 04:53:42;;;;;;;13.30;9.32;;;;;;;;;;5036745;28;20028;-83
2021/08/23 04:56:11;;;;;;;14.17;9.00;;;;;;;;;;5034801;28;20064;-83
2021/08/23 04:58:36;;;;;;;16.17;9.18;;;;;;;;;;5033856;28;20264;-83
2021/08/23 05:01:01;;;;;;;15.95;9.98;;;;;;;;;;5031252;28;20028;-83
2021/08/23 05:03:26;;;;;;;17.03;8.97;;;;;;;;;;5032264;28;20049;-83
2021/08/23 05:05:51;;;;;;;14.83;9.17;;;;;;;;;;5031960;28;20267;-82
2021/08/23 05:08:18;;;;;;;16.40;11.05;;;;;;;;;;5031472;28;20256;-82
2021/08/23 05:10:43;;;;;;;18.75;10.90;;;;;;;;;;5031809;28;20037;-83
2021/08/23 05:13:08;;;;;;;25.70;11.07;;;;;;;;;;5035901;28;20029;-83
2021/08/23 05:15:34;;;;;;;19.57;10.53;;;;;;;;;;5035087;28;20742;-83
2021/08/23 05:18:00;;;;;;;16.88;11.88;;;;;;;;;;5034343;28;20272;-82
2021/08/23 05:20:25;;;;;;;16.13;10.70;;;;;;;;;;5034385;28;20032;-83
2021/08/23 05:22:50;;;;;;;17.30;11.85;;;;;;;;;;5034362;28;20263;-83
2021/08/23 05:25:15;;;;;;;17.05;10.15;;;;;;;;;;5031283;28;20021;-83
2021/08/23 05:27:40;;;;;;;16.15;10.35;;;;;;;;;;5032742;28;20037;-83
2021/08/23 05:30:06;;;;;;;16.77;9.70;;;;;;;;;;5032975;28;20481;-83
2021/08/23 05:32:32;;;;;;;18.88;11.02;;;;;;;;;;5031383;28;20260;-82
2021/08/23 05:34:57;;;;;;;18.90;10.15;;;;;;;;;;5029958;28;20108;-82
2021/08/23 05:37:22;;;;;;;20.17;11.48;;;;;;;;;;5033855;28;20021;-83
2021/08/23 05:39:48;;;;;;;19.98;10.93;;;;;;;;;;5032623;28;20021;-83
2021/08/23 05:42:14;;;;;;;17.25;10.18;;;;;;;;;;5034012;28;20112;-83
2021/08/23 05:44:39;;;;;;;15.00;10.07;;;;;;;;;;5035296;28;20021;-83
2021/08/23 05:47:04;;;;;;;18.35;10.43;;;;;;;;;;5033953;28;20751;-83
2021/08/23 05:49:30;;;;;;;16.92;10.68;;;;;;;;;;5032441;28;20021;-83
2021/08/23 05:51:55;;;;;;;18.95;11.70;;;;;;;;;;5030748;28;20057;-83
2021/08/23 05:54:20;;;;;;;22.43;13.37;;;;;;;;;;5031814;28;20059;-83
2021/08/23 05:56:45;;;;;;;18.50;12.23;;;;;;;;;;5033048;28;20662;-83
2021/08/23 05:59:10;;;;;;;20.80;13.70;;;;;;;;;;5035925;28;20256;-83
2021/08/23 06:01:35;;;;;;;24.50;13.70;;;;;;;;;;5034707;28;20295;-83
2021/08/23 06:04:01;;;;;;;28.63;14.97;;;;;;;;;;5031747;28;20025;-83
2021/08/23 06:06:26;;;;;;;18.30;13.23;;;;;;;;;;5033303;28;20256;-83
2021/08/23 06:08:51;;;;;;;20.60;14.47;;;;;;;;;;5032337;28;20252;-83
2021/08/23 06:11:16;;;;;;;17.30;12.97;;;;;;;;;;5034582;28;20593;-83
2021/08/23 06:13:41;;;;;;;21.83;14.53;;;;;;;;;;5032915;28;20314;-83
2021/08/23 06:16:07;;;;;;;25.30;15.20;;;;;;;;;;5030551;28;20527;-83
2021/08/23 06:18:32;;;;;;;21.60;15.23;;;;;;;;;;5030223;28;20030;-82
2021/08/23 06:21:00;;;;;;;25.50;15.73;;;;;;;;;;5034650;28;20030;-83
2021/08/23 06:23:25;;;;;;;25.85;16.02;;;;;;;;;;5035344;28;20267;-83
2021/08/23 06:25:50;;;;;;;24.63;15.10;;;;;;;;;;5032465;28;20025;-83
2021/08/23 06:28:15;;;;;;;20.53;12.60;;;;;;;;;;5033608;28;20260;-83
2021/08/23 06:30:41;;;;;;;23.17;13.70;;;;;;;;;;5030612;28;20026;-83
2021/08/23 06:33:06;;;;;;;18.83;13.20;;;;;;;;;;5032164;28;20029;-83
2021/08/23 06:35:31;;;;;;;26.63;14.82;;;;;;;;;;5033440;28;20276;-84
2021/08/23 06:37:56;;;;;;;28.33;14.47;;;;;;;;;;5031697;28;20120;-83
2021/08/23 06:40:22;;;;;;;21.53;14.63;;;;;;;;;;5032816;28;20359;-84
2021/08/23 06:42:47;;;;;;;22.80;14.55;;;;;;;;;;5031568;28;20252;-83
2021/08/23 06:45:12;;;;;;;15.37;11.67;;;;;;;;;;5033256;28;20044;-83
2021/08/23 06:47:37;;;;;;;21.57;14.60;;;;;;;;;;5036055;28;20821;-83
2021/08/23 06:50:03;;;;;;;17.65;12.57;;;;;;;;;;5034007;28;20291;-83
2021/08/23 06:52:28;;;;;;;15.65;11.98;;;;;;;;;;5033569;28;20049;-83
2021/08/23 06:54:54;;;;;;;20.95;10.75;;;;;;;;;;5036263;28;20021;-83
2021/08/23 06:57:19;;;;;;;13.43;10.23;;;;;;;;;;5035765;28;20033;-83
2021/08/23 06:59:44;;;;;;;13.15;9.68;;;;;;;;;;5034440;28;20284;-83
2021/08/23 07:02:10;;;;;;;18.30;9.67;;;;;;;;;;5034854;28;20059;-82
2021/08/23 07:04:35;;;;;;;13.88;9.70;;;;;;;;;;5037267;28;20344;-83
2021/08/23 07:07:01;;;;;;;11.55;9.27;;;;;;;;;;5036676;28;20560;-84
2021/08/23 07:09:26;;;;;;;12.68;9.18;;;;;;;;;;5038133;28;20365;-83
2021/08/23 07:11:52;;;;;;;10.83;7.97;;;;;;;;;;5038598;28;20034;-83
2021/08/23 07:14:17;;;;;;;9.25;7.35;;;;;;;;;;5037220;28;20477;-83
2021/08/23 07:16:42;;;;;;;8.82;7.18;;;;;;;;;;5035648;28;20441;-83
2021/08/23 07:19:07;;;;;;;11.17;5.83;;;;;;;;;;5033533;28;20496;-83
2021/08/23 07:21:32;;;;;;;7.10;6.07;;;;;;;;;;5034760;28;20283;-83
2021/08/23 07:23:58;;;;;;;13.23;7.20;;;;;;;;;;5033998;28;20257;-82
2021/08/23 07:26:23;;;;;;;9.63;6.55;;;;;;;;;;5037133;28;20096;-83
2021/08/23 07:28:48;;;;;;;10.90;6.37;;;;;;;;;;5037286;28;20028;-83
2021/08/23 07:31:15;;;;;;;8.53;5.90;;;;;;;;;;5038153;28;20021;-83
2021/08/23 07:33:40;;;;;;;8.82;6.13;;;;;;;;;;5036636;28;20728;-83
2021/08/23 07:36:06;;;;;;;8.33;5.80;;;;;;;;;;5035755;28;20036;-83
2021/08/23 07:38:31;;;;;;;8.60;4.60;;;;;;;;;;5035698;28;20027;-83
2021/08/23 07:40:56;;;;;;;6.77;5.37;;;;;;;;;;5032728;28;20280;-82
2021/08/23 07:43:21;;;;;;;7.85;5.53;;;;;;;;;;5033824;28;20264;-83
2021/08/23 07:45:47;;;;;;;6.95;5.82;;;;;;;;;;5033198;28;20025;-82
2021/08/23 07:48:13;;;;;;;9.23;5.20;;;;;;;;;;5033150;28;20122;-83
2021/08/23 07:50:38;;;;;;;10.00;5.88;;;;;;;;;;5036465;28;20029;-83
2021/08/23 07:53:03;;;;;;;9.85;4.88;;;;;;;;;;5038444;28;20038;-83
2021/08/23 07:55:29;;;;;;;12.40;5.43;;;;;;;;;;5036688;28;20029;-83
2021/08/23 07:57:54;;;;;;;5.40;4.75;;;;;;;;;;5033867;28;20025;-83
2021/08/23 08:00:20;;;;;;;6.07;4.93;;;;;;;;;;5034664;28;20025;-83
2021/08/23 08:02:46;;;;;;;9.40;5.00;;;;;;;;;;5033903;28;20620;-82
2021/08/23 08:05:12;;;;;;;6.00;4.70;;;;;;;;;;5033551;28;20025;-83
2021/08/23 08:07:37;;;;;;;6.28;4.78;;;;;;;;;;5032842;28;20031;-82
2021/08/23 08:10:03;;;;;;;7.43;5.18;;;;;;;;;;5034040;28;20029;-83
2021/08/23 08:12:29;;;;;;;9.27;5.40;;;;;;;;;;5039545;28;20024;-83
2021/08/23 08:14:56;;;;;;;5.67;4.07;;;;;;;;;;5037673;28;20128;-83
2021/08/23 08:17:21;;;;;;;7.18;4.20;;;;;;;;;;5036692;28;20025;-84
2021/08/23 08:19:46;;;;;;;10.40;4.93;;;;;;;;;;5035856;28;20587;-83
2021/08/23 08:22:13;;;;;;;5.63;3.90;;;;;;;;;;5034374;28;20264;-83
2021/08/23 08:24:38;;;;;;;7.57;4.68;;;;;;;;;;5034562;28;20462;-82
2021/08/23 08:27:03;;;;;;;7.70;4.57;;;;;;;;;;5032161;28;20064;-83
2021/08/23 08:29:29;;;;;;;7.00;4.30;;;;;;;;;;5032103;28;20022;-83
2021/08/23 08:31:54;;;;;;;7.45;4.97;;;;;;;;;;5033106;28;20252;-83
2021/08/23 08:34:19;;;;;;;7.17;3.67;;;;;;;;;;5032878;28;20100;-82
2021/08/23 08:36:45;;;;;;;5.03;3.30;;;;;;;;;;5033768;28;20673;-83
2021/08/23 08:39:10;;;;;;;6.05;3.47;;;;;;;;;;5036604;28;20260;-83
2021/08/23 08:41:36;;;;;;;5.13;3.57;;;;;;;;;;5037397;28;20451;-83
2021/08/23 08:44:01;;;;;;;4.18;3.20;;;;;;;;;;5038177;28;20311;-83
2021/08/23 08:46:26;;;;;;;5.20;2.90;;;;;;;;;;5035023;28;20021;-83
2021/08/23 08:48:53;;;;;;;4.28;2.88;;;;;;;;;;5034032;28;20024;-83
2021/08/23 08:51:18;;;;;;;3.15;2.85;;;;;;;;;;5032593;28;20049;-83
2021/08/23 08:53:43;;;;;;;3.95;3.00;;;;;;;;;;5034020;28;20440;-83
2021/08/23 08:56:09;;;;;;;3.85;2.92;;;;;;;;;;5033056;28;20025;-83
2021/08/23 08:58:34;;;;;;;5.18;2.72;;;;;;;;;;5032776;28;20021;-82
2021/08/23 09:01:01;;;;;;;3.90;3.20;;;;;;;;;;5033596;28;20021;-84
2021/08/23 09:03:27;;;;;;;3.38;2.75;;;;;;;;;;5037622;28;20028;-84
2021/08/23 09:06:03;;;;;;;4.45;2.30;;;;;;;;;;5034605;28;20029;-83
2021/08/23 09:08:29;;;;;;;6.07;2.38;;;;;;;;;;5035133;28;20021;-83
2021/08/23 09:10:55;;;;;;;6.60;2.58;;;;;;;;;;5035819;28;20032;-83
2021/08/23 09:13:20;;;;;;;3.72;2.70;;;;;;;;;;5033920;28;20028;-83
2021/08/23 09:15:52;;;;;;;3.27;2.20;;;;;;;;;;5032568;28;20079;-83
2021/08/23 09:18:24;;;;;;;4.78;2.55;;;;;;;;;;5033021;28;20263;-83
2021/08/23 09:21:03;;;;;;;4.35;2.50;;;;;;;;;;5031541;28;20029;-82
2021/08/23 09:23:33;;;;;;;7.40;2.50;;;;;;;;;;5032448;28;20362;-84
2021/08/23 09:26:05;;;;;;;2.85;2.55;;;;;;;;;;5035897;28;20476;-83
2021/08/23 09:28:30;;;;;;;4.82;2.78;;;;;;;;;;5035073;28;20025;-83
2021/08/23 09:30:56;;;;;;;3.60;2.90;;;;;;;;;;5032598;28;20030;-83
2021/08/23 09:33:21;;;;;;;5.25;2.90;;;;;;;;;;5034765;28;20264;-84
2021/08/23 09:35:47;;;;;;;4.43;2.42;;;;;;;;;;5035681;28;20033;-83
2021/08/23 09:38:13;;;;;;;7.70;2.60;;;;;;;;;;5034162;28;20484;-83
2021/08/23 09:40:39;;;;;;;3.05;2.67;;;;;;;;;;5033212;28;20025;-83
2021/08/23 09:43:13;;;;;;;5.43;2.33;;;;;;;;;;5032301;28;20078;-83
2021/08/23 09:45:39;;;;;;;6.10;2.40;;;;;;;;;;5030430;28;20025;-83
2021/08/23 09:48:05;;;;;;;3.45;2.53;;;;;;;;;;5034527;28;20025;-84
2021/08/23 09:50:44;;;;;;;4.57;2.13;;;;;;;;;;5036401;28;20073;-83
2021/08/23 09:53:11;;;;;;;6.78;2.38;;;;;;;;;;5034278;28;20025;-83
2021/08/23 09:55:38;;;;;;;6.22;2.30;;;;;;;;;;5033187;28;20064;-84
2021/08/23 09:58:03;;;;;;;5.13;1.98;;;;;;;;;;5032507;28;20029;-83
2021/08/23 10:00:28;;;;;;;2.35;2.00;;;;;;;;;;5033503;28;20029;-84
2021/08/23 10:02:54;;;;;;;5.03;2.03;;;;;;;;;;5033990;28;20021;-83
2021/08/23 10:05:19;;;;;;;4.22;2.45;;;;;;;;;;5033082;28;20095;-83
2021/08/23 10:07:46;;;;;;;3.72;2.60;;;;;;;;;;5032900;28;20024;-84
2021/08/23 10:10:11;;;;;;;3.28;1.90;;;;;;;;;;5036491;28;20026;-83
2021/08/23 10:12:37;;;;;;;3.63;2.00;;;;;;;;;;5035465;28;20087;-84
2021/08/23 10:15:03;;;;;;;3.67;2.00;;;;;;;;;;5033297;28;20452;-83
2021/08/23 10:17:35;;;;;;;3.25;2.17;;;;;;;;;;5032805;28;20060;-83
2021/08/23 10:20:00;;;;;;;2.30;1.85;;;;;;;;;;5032036;28;20017;-82
2021/08/23 10:22:25;;;;;;;3.78;1.95;;;;;;;;;;5029612;28;20109;-83
2021/08/23 10:24:50;;;;;;;2.63;1.80;;;;;;;;;;5033365;28;20013;-83
2021/08/23 10:27:23;;;;;;;3.50;1.90;;;;;;;;;;5032078;28;20887;-83
2021/08/23 10:29:48;;;;;;;6.22;2.25;;;;;;;;;;5037508;28;20601;-83
2021/08/23 10:32:14;;;;;;;3.03;2.30;;;;;;;;;;5034719;28;20129;-83
2021/08/23 10:34:39;;;;;;;3.00;2.03;;;;;;;;;;5041084;28;20024;-83
2021/08/23 10:37:17;;;;;;;5.55;3.15;;;;;;;;;;5038211;28;20041;-83
2021/08/23 10:39:43;;;;;;;7.43;2.03;;;;;;;;;;5035709;28;20021;-83
2021/08/23 10:42:12;;;;;;;2.70;1.80;;;;;;;;;;5034952;28;20029;-83
2021/08/23 10:44:38;;;;;;;4.00;2.65;;;;;;;;;;5035399;28;20264;-82
2021/08/23 10:47:10;;;;;;;5.60;2.10;;;;;;;;;;5034845;28;20025;-83
2021/08/23 10:49:46;;;;;;;5.93;1.83;;;;;;;;;;5033778;28;20104;-83
2021/08/23 10:52:12;;;;;;;2.90;2.10;;;;;;;;;;5036032;28;20108;-83
2021/08/23 10:54:42;;;;;;;4.45;2.45;;;;;;;;;;5039136;28;20049;-83
2021/08/23 10:57:08;;;;;;;4.93;2.05;;;;;;;;;;5040121;28;20021;-83
2021/08/23 10:59:41;;;;;;;4.30;1.90;;;;;;;;;;5036897;28;20499;-83
2021/08/23 11:02:06;;;;;;;2.33;1.60;;;;;;;;;;5036708;28;20029;-83
2021/08/23 11:04:33;;;;;;;4.25;1.85;;;;;;;;;;5036293;28;20024;-83
2021/08/23 11:06:59;;;;;;;5.18;1.88;;;;;;;;;;5032929;28;20504;-83
2021/08/23 11:09:35;;;;;;;7.78;1.65;;;;;;;;;;5032522;28;20029;-83
2021/08/23 11:12:11;;;;;;;3.08;1.95;;;;;;;;;;5034236;28;20056;-83
2021/08/23 11:14:43;;;;;;;4.75;1.77;;;;;;;;;;5040457;28;20089;-83
2021/08/23 11:17:08;;;;;;;3.33;1.98;;;;;;;;;;5036552;28;20053;-83
2021/08/23 11:19:36;;;;;;;5.47;2.00;;;;;;;;;;5034768;28;20393;-84
2021/08/23 11:22:02;;;;;;;6.18;2.15;;;;;;;;;;5035448;28;20025;-84
2021/08/23 11:24:32;;;;;;;7.32;1.98;;;;;;;;;;5035018;28;20461;-83
2021/08/23 11:27:01;;;;;;;6.50;2.00;;;;;;;;;;5031872;28;20071;-83
2021/08/23 11:29:27;;;;;;;5.35;2.08;;;;;;;;;;5032008;28;20136;-82
2021/08/23 11:31:59;;;;;;;6.28;2.33;;;;;;;;;;5031630;28;20768;-83
2021/08/23 11:34:27;;;;;;;5.72;2.35;;;;;;;;;;5039307;28;20025;-83
2021/08/23 11:36:53;;;;;;;2.75;2.17;;;;;;;;;;5037774;28;20051;-83
2021/08/23 11:39:19;;;;;;;6.60;1.95;;;;;;;;;;5038093;28;20104;-84
2021/08/23 11:41:54;;;;;;;6.28;2.50;;;;;;;;;;5034208;28;20025;-83
2021/08/23 11:44:19;;;;;;;5.82;1.73;;;;;;;;;;5035633;28;20017;-83
2021/08/23 11:46:52;;;;;;;5.32;1.90;;;;;;;;;;5033053;28;20476;-84
2021/08/23 11:49:25;;;;;;;3.28;1.98;;;;;;;;;;5033702;28;20477;-82
2021/08/23 11:51:50;;;;;;;7.75;2.00;;;;;;;;;;5031882;28;20760;-82
2021/08/23 11:54:17;;;;;;;6.07;1.97;;;;;;;;;;5031240;28;20036;-83
2021/08/23 11:56:42;;;;;;;3.88;2.10;;;;;;;;;;5034265;28;20117;-84
2021/08/23 11:59:14;;;;;;;9.20;2.40;;;;;;;;;;5040100;28;20057;-83
2021/08/23 12:01:39;;;;;;;3.90;2.20;;;;;;;;;;5039199;28;20643;-83
2021/08/23 12:04:04;;;;;;;6.23;2.20;;;;;;;;;;5037400;28;20021;-83
2021/08/23 12:06:33;;;;;;;3.10;2.10;;;;;;;;;;5034935;28;20261;-83
2021/08/23 12:08:59;;;;;;;5.50;2.00;;;;;;;;;;5035868;28;20659;-82
2021/08/23 12:11:24;;;;;;;2.88;1.88;;;;;;;;;;5033050;28;20074;-83
2021/08/23 12:13:50;;;;;;;3.80;1.70;;;;;;;;;;5034066;28;20052;-83
2021/08/23 12:16:16;;;;;;;3.33;1.70;;;;;;;;;;5033313;28;20523;-83
2021/08/23 12:18:46;;;;;;;5.47;1.85;;;;;;;;;;5033033;28;20032;-84
2021/08/23 12:21:12;;;;;;;7.82;2.15;;;;;;;;;;5032626;28;20052;-83
2021/08/23 12:23:48;;;;;;;3.90;1.40;;;;;;;;;;5036099;28;20018;-84
2021/08/23 12:26:15;;;;;;;3.65;1.77;;;;;;;;;;5039023;28;20018;-84
2021/08/23 12:28:50;;;;;;;3.20;1.80;;;;;;;;;;5038305;28;20144;-84
2021/08/23 12:31:15;;;;;;;3.35;1.77;;;;;;;;;;5034880;28;20112;-83
2021/08/23 12:33:41;;;;;;;2.78;1.73;;;;;;;;;;5033847;28;20132;-82
2021/08/23 12:36:06;;;;;;;5.32;1.77;;;;;;;;;;5033890;28;20025;-83
2021/08/23 12:38:31;;;;;;;6.53;1.73;;;;;;;;;;5034188;28;20049;-83
2021/08/23 12:40:56;;;;;;;5.13;2.10;;;;;;;;;;5031260;28;20379;-83
2021/08/23 12:43:21;;;;;;;4.27;1.73;;;;;;;;;;5032103;28;20384;-82
2021/08/23 12:45:47;;;;;;;4.10;1.80;;;;;;;;;;5032133;28;20034;-83
2021/08/23 12:48:12;;;;;;;3.27;1.73;;;;;;;;;;5032093;28;20782;-84
2021/08/23 12:50:37;;;;;;;4.23;1.87;;;;;;;;;;5032128;28;20021;-83
2021/08/23 12:53:02;;;;;;;4.10;1.80;;;;;;;;;;5032835;28;20129;-84
2021/08/23 12:55:27;;;;;;;4.03;1.97;;;;;;;;;;5032937;28;20030;-84
2021/08/23 12:57:53;;;;;;;5.33;2.60;;;;;;;;;;5032025;28;20263;-84
2021/08/23 13:00:18;;;;;;;2.90;1.83;;;;;;;;;;5029977;28;20048;-83
2021/08/23 13:02:43;;;;;;;4.53;1.55;;;;;;;;;;5031196;28;20465;-84
2021/08/23 13:05:09;;;;;;;2.03;1.37;;;;;;;;;;5030045;28;20018;-84
2021/08/23 13:07:34;;;;;;;4.60;1.77;;;;;;;;;;5030961;28;20385;-84
2021/08/23 13:09:59;;;;;;;7.00;1.50;;;;;;;;;;5030965;28;20017;-84
2021/08/23 13:12:25;;;;;;;3.90;1.23;;;;;;;;;;5030109;28;20564;-84
2021/08/23 13:14:50;;;;;;;4.40;1.15;;;;;;;;;;5029470;28;20124;-84
2021/08/23 13:17:15;;;;;;;3.67;1.47;;;;;;;;;;5029756;28;20037;-84
2021/08/23 13:19:41;;;;;;;5.60;1.50;;;;;;;;;;5030863;28;20485;-84
2021/08/23 13:22:06;;;;;;;2.97;1.20;;;;;;;;;;5030862;28;20032;-84
2021/08/23 13:24:32;;;;;;;2.87;1.10;;;;;;;;;;5029122;28;20256;-84
2021/08/23 13:26:57;;;;;;;2.40;1.20;;;;;;;;;;5029052;28;20082;-83
2021/08/23 13:29:22;;;;;;;3.80;1.10;;;;;;;;;;5030340;28;20040;-84
2021/08/23 13:31:47;;;;;;;1.43;1.10;;;;;;;;;;5029695;28;20037;-84
2021/08/23 13:34:12;;;;;;;3.30;1.20;;;;;;;;;;5030134;28;20021;-84
2021/08/23 13:36:38;;;;;;;2.03;1.20;;;;;;;;;;5030552;28;20036;-83
2021/08/23 13:39:03;;;;;;;3.50;1.13;;;;;;;;;;5030429;28;20417;-83
2021/08/23 13:41:28;;;;;;;2.27;1.07;;;;;;;;;;5028819;28;20079;-84
2021/08/23 13:43:53;;;;;;;5.65;1.02;;;;;;;;;;5030098;28;20104;-83
2021/08/23 13:46:19;;;;;;;2.90;1.10;;;;;;;;;;5030274;28;20018;-84
2021/08/23 13:48:44;;;;;;;1.40;0.90;;;;;;;;;;5030227;28;20037;-84
2021/08/23 13:51:09;;;;;;;2.20;1.00;;;;;;;;;;5030103;28;20056;-84
2021/08/23 13:53:34;;;;;;;0.60;0.60;;;;;;;;;;5029888;28;20272;-84
2021/08/23 13:56:00;;;;;;;2.67;1.20;;;;;;;;;;5031013;28;20100;-84
2021/08/23 13:58:25;;;;;;;1.17;0.70;;;;;;;;;;5028674;28;20140;-84
2021/08/23 14:00:50;;;;;;;1.83;0.80;;;;;;;;;;5030046;28;20021;-84
2021/08/23 14:03:15;;;;;;;1.33;0.97;;;;;;;;;;5028237;28;20128;-84
2021/08/23 14:05:40;;;;;;;2.77;0.87;;;;;;;;;;5030072;28;20036;-84
2021/08/23 14:08:06;;;;;;;0.97;0.90;;;;;;;;;;5028526;28;20031;-84
2021/08/23 14:10:33;;;;;;;0.90;0.90;;;;;;;;;;5030061;28;20465;-84
2021/08/23 14:12:58;;;;;;;4.07;0.98;;;;;;;;;;5029865;28;20529;-83
2021/08/23 14:15:23;;;;;;;2.03;1.20;;;;;;;;;;5027943;28;20156;-84
2021/08/23 14:17:48;;;;;;;1.37;0.77;;;;;;;;;;5028432;28;20021;-84
2021/08/23 14:20:14;;;;;;;3.27;0.80;;;;;;;;;;5029602;28;20021;-84
2021/08/23 14:22:40;;;;;;;5.57;1.02;;;;;;;;;;5029863;28;20041;-84
2021/08/23 14:25:06;;;;;;;1.83;0.90;;;;;;;;;;5029844;28;20456;-84
2021/08/23 14:27:31;;;;;;;1.40;0.88;;;;;;;;;;5029719;28;20424;-84
2021/08/23 14:29:56;;;;;;;2.83;1.25;;;;;;;;;;5029480;28;20381;-84
2021/08/23 14:32:22;;;;;;;2.07;1.10;;;;;;;;;;5029684;28;20044;-84